sensor_id;sensor_type;location;lat;lon;timestamp;P1;durP1;ratioP1;P2;durP2;ratioP2
8100;SDS011;4093;53.470;9.832;2023-07-31T00:02:03;9.23;;;3.33;;
8100;SDS011;4093;53.470;9.832;2023-07-31T00:04:32;13.07;;;5.17;;
8100;SDS011;4093;53.470;9.832;2023-07-31T00:07:01;6.60;;;3.17;;
8100;SDS011;4093;53.470;9.832;2023-07-31T00:09:30;9.17;;;2.97;;
8100;SDS011;4093;53.470;9.832;2023-07-31T00:11:58;12.90;;;3.63;;
8100;SDS011;4093;53.470;9.832;2023-07-31T00:14:26;10.50;;;3.90;;
8100;SDS011;4093;53.470;9.832;2023-07-31T00:16:54;7.30;;;3.60;;
8100;SDS011;4093;53.470;9.832;2023-07-31T00:19:21;5.83;;;3.13;;
8100;SDS011;4093;53.470;9.832;2023-07-31T00:21:49;6.30;;;3.10;;
8100;SDS011;4093;53.470;9.832;2023-07-31T00:24:18;6.78;;;3.13;;
8100;SDS011;4093;53.470;9.832;2023-07-31T00:26:46;8.95;;;3.85;;
8100;SDS011;4093;53.470;9.832;2023-07-31T00:29:13;8.60;;;3.57;;
8100;SDS011;4093;53.470;9.832;2023-07-31T00:31:41;11.13;;;3.57;;
8100;SDS011;4093;53.470;9.832;2023-07-31T00:34:09;7.07;;;3.50;;
8100;SDS011;4093;53.470;9.832;2023-07-31T00:36:38;8.90;;;3.47;;
8100;SDS011;4093;53.470;9.832;2023-07-31T00:39:06;9.97;;;3.37;;
8100;SDS011;4093;53.470;9.832;2023-07-31T00:41:35;9.07;;;3.83;;
8100;SDS011;4093;53.470;9.832;2023-07-31T00:44:03;6.80;;;3.37;;
8100;SDS011;4093;53.470;9.832;2023-07-31T00:46:31;8.47;;;3.70;;
8100;SDS011;4093;53.470;9.832;2023-07-31T00:48:58;9.43;;;3.78;;
8100;SDS011;4093;53.470;9.832;2023-07-31T00:51:26;7.40;;;3.23;;
8100;SDS011;4093;53.470;9.832;2023-07-31T00:53:54;8.95;;;3.75;;
8100;SDS011;4093;53.470;9.832;2023-07-31T00:56:23;7.53;;;3.40;;
8100;SDS011;4093;53.470;9.832;2023-07-31T00:58:52;10.97;;;3.57;;
8100;SDS011;4093;53.470;9.832;2023-07-31T01:01:20;12.40;;;3.10;;
8100;SDS011;4093;53.470;9.832;2023-07-31T01:03:48;6.07;;;3.58;;
8100;SDS011;4093;53.470;9.832;2023-07-31T01:06:22;10.07;;;3.73;;
8100;SDS011;4093;53.470;9.832;2023-07-31T01:08:58;9.50;;;3.92;;
8100;SDS011;4093;53.470;9.832;2023-07-31T01:11:30;5.50;;;3.70;;
8100;SDS011;4093;53.470;9.832;2023-07-31T01:14:01;10.90;;;4.17;;
8100;SDS011;4093;53.470;9.832;2023-07-31T01:16:29;8.80;;;3.93;;
8100;SDS011;4093;53.470;9.832;2023-07-31T01:18:57;9.90;;;3.83;;
8100;SDS011;4093;53.470;9.832;2023-07-31T01:21:30;8.37;;;3.83;;
8100;SDS011;4093;53.470;9.832;2023-07-31T01:24:17;9.60;;;4.17;;
8100;SDS011;4093;53.470;9.832;2023-07-31T01:26:51;13.03;;;4.17;;
8100;SDS011;4093;53.470;9.832;2023-07-31T01:29:25;9.80;;;4.10;;
8100;SDS011;4093;53.470;9.832;2023-07-31T01:32:01;7.50;;;4.50;;
8100;SDS011;4093;53.470;9.832;2023-07-31T01:34:29;7.07;;;3.95;;
8100;SDS011;4093;53.470;9.832;2023-07-31T01:36:59;8.43;;;4.60;;
8100;SDS011;4093;53.470;9.832;2023-07-31T01:39:27;10.20;;;4.17;;
8100;SDS011;4093;53.470;9.832;2023-07-31T01:41:56;8.57;;;4.50;;
8100;SDS011;4093;53.470;9.832;2023-07-31T01:44:23;9.17;;;4.37;;
8100;SDS011;4093;53.470;9.832;2023-07-31T01:46:51;8.20;;;4.07;;
8100;SDS011;4093;53.470;9.832;2023-07-31T01:49:19;8.27;;;4.37;;
8100;SDS011;4093;53.470;9.832;2023-07-31T01:51:46;8.27;;;4.20;;
8100;SDS011;4093;53.470;9.832;2023-07-31T01:54:14;13.70;;;4.53;;
8100;SDS011;4093;53.470;9.832;2023-07-31T01:56:42;8.13;;;4.90;;
8100;SDS011;4093;53.470;9.832;2023-07-31T01:59:11;8.87;;;4.80;;
8100;SDS011;4093;53.470;9.832;2023-07-31T02:01:39;8.67;;;4.40;;
8100;SDS011;4093;53.470;9.832;2023-07-31T02:04:07;7.90;;;4.30;;
8100;SDS011;4093;53.470;9.832;2023-07-31T02:06:34;8.37;;;4.43;;
8100;SDS011;4093;53.470;9.832;2023-07-31T02:09:02;6.70;;;3.90;;
8100;SDS011;4093;53.470;9.832;2023-07-31T02:11:30;9.33;;;4.30;;
8100;SDS011;4093;53.470;9.832;2023-07-31T02:13:58;9.37;;;4.53;;
8100;SDS011;4093;53.470;9.832;2023-07-31T02:16:27;10.53;;;4.53;;
8100;SDS011;4093;53.470;9.832;2023-07-31T02:18:55;9.67;;;4.87;;
8100;SDS011;4093;53.470;9.832;2023-07-31T02:21:22;10.33;;;4.60;;
8100;SDS011;4093;53.470;9.832;2023-07-31T02:23:50;9.33;;;4.50;;
8100;SDS011;4093;53.470;9.832;2023-07-31T02:26:18;11.63;;;4.67;;
8100;SDS011;4093;53.470;9.832;2023-07-31T02:28:46;8.67;;;4.53;;
8100;SDS011;4093;53.470;9.832;2023-07-31T02:31:13;9.27;;;4.73;;
8100;SDS011;4093;53.470;9.832;2023-07-31T02:33:42;8.23;;;4.80;;
8100;SDS011;4093;53.470;9.832;2023-07-31T02:36:10;13.50;;;4.80;;
8100;SDS011;4093;53.470;9.832;2023-07-31T02:38:38;5.63;;;3.97;;
8100;SDS011;4093;53.470;9.832;2023-07-31T02:41:06;11.17;;;4.73;;
8100;SDS011;4093;53.470;9.832;2023-07-31T02:43:33;11.53;;;4.77;;
8100;SDS011;4093;53.470;9.832;2023-07-31T02:46:01;6.33;;;4.20;;
8100;SDS011;4093;53.470;9.832;2023-07-31T02:48:29;8.90;;;4.90;;
8100;SDS011;4093;53.470;9.832;2023-07-31T02:50:58;10.77;;;4.27;;
8100;SDS011;4093;53.470;9.832;2023-07-31T02:53:26;9.07;;;4.27;;
8100;SDS011;4093;53.470;9.832;2023-07-31T02:55:53;11.27;;;5.13;;
8100;SDS011;4093;53.470;9.832;2023-07-31T02:58:21;8.97;;;4.67;;
8100;SDS011;4093;53.470;9.832;2023-07-31T03:00:49;7.07;;;4.40;;
8100;SDS011;4093;53.470;9.832;2023-07-31T03:03:17;9.90;;;4.43;;
8100;SDS011;4093;53.470;9.832;2023-07-31T03:05:44;8.77;;;5.00;;
8100;SDS011;4093;53.470;9.832;2023-07-31T03:08:14;11.37;;;5.00;;
8100;SDS011;4093;53.470;9.832;2023-07-31T03:10:42;12.57;;;4.80;;
8100;SDS011;4093;53.470;9.832;2023-07-31T03:13:09;9.63;;;4.47;;
8100;SDS011;4093;53.470;9.832;2023-07-31T03:15:37;10.73;;;4.70;;
8100;SDS011;4093;53.470;9.832;2023-07-31T03:18:05;6.50;;;4.40;;
8100;SDS011;4093;53.470;9.832;2023-07-31T03:20:32;9.80;;;4.63;;
8100;SDS011;4093;53.470;9.832;2023-07-31T03:23:00;8.33;;;4.07;;
8100;SDS011;4093;53.470;9.832;2023-07-31T03:25:29;7.97;;;4.50;;
8100;SDS011;4093;53.470;9.832;2023-07-31T03:27:57;7.43;;;5.00;;
8100;SDS011;4093;53.470;9.832;2023-07-31T03:30:25;8.83;;;5.10;;
8100;SDS011;4093;53.470;9.832;2023-07-31T03:32:52;7.43;;;4.70;;
8100;SDS011;4093;53.470;9.832;2023-07-31T03:35:20;8.87;;;4.60;;
8100;SDS011;4093;53.470;9.832;2023-07-31T03:37:48;7.90;;;4.73;;
8100;SDS011;4093;53.470;9.832;2023-07-31T03:40:16;9.30;;;4.63;;
8100;SDS011;4093;53.470;9.832;2023-07-31T03:42:45;6.10;;;4.43;;
8100;SDS011;4093;53.470;9.832;2023-07-31T03:45:13;8.63;;;4.80;;
8100;SDS011;4093;53.470;9.832;2023-07-31T03:47:41;4.93;;;4.40;;
8100;SDS011;4093;53.470;9.832;2023-07-31T03:50:09;9.97;;;4.60;;
8100;SDS011;4093;53.470;9.832;2023-07-31T03:52:37;7.13;;;4.43;;
8100;SDS011;4093;53.470;9.832;2023-07-31T03:55:05;7.70;;;4.53;;
8100;SDS011;4093;53.470;9.832;2023-07-31T03:57:32;8.53;;;4.90;;
8100;SDS011;4093;53.470;9.832;2023-07-31T04:00:01;5.83;;;4.47;;
8100;SDS011;4093;53.470;9.832;2023-07-31T04:02:29;5.87;;;4.47;;
8100;SDS011;4093;53.470;9.832;2023-07-31T04:04:57;5.33;;;4.47;;
8100;SDS011;4093;53.470;9.832;2023-07-31T04:07:25;6.57;;;4.17;;
8100;SDS011;4093;53.470;9.832;2023-07-31T04:09:53;6.07;;;4.43;;
8100;SDS011;4093;53.470;9.832;2023-07-31T04:12:20;5.20;;;4.27;;
8100;SDS011;4093;53.470;9.832;2023-07-31T04:14:48;5.97;;;4.30;;
8100;SDS011;4093;53.470;9.832;2023-07-31T04:17:18;6.37;;;4.13;;
8100;SDS011;4093;53.470;9.832;2023-07-31T04:19:46;4.43;;;3.83;;
8100;SDS011;4093;53.470;9.832;2023-07-31T04:22:13;4.47;;;3.87;;
8100;SDS011;4093;53.470;9.832;2023-07-31T04:24:41;5.07;;;3.77;;
8100;SDS011;4093;53.470;9.832;2023-07-31T04:27:09;5.60;;;4.30;;
8100;SDS011;4093;53.470;9.832;2023-07-31T04:29:37;6.87;;;4.23;;
8100;SDS011;4093;53.470;9.832;2023-07-31T04:32:06;5.23;;;4.10;;
8100;SDS011;4093;53.470;9.832;2023-07-31T04:34:35;5.87;;;3.90;;
8100;SDS011;4093;53.470;9.832;2023-07-31T04:37:03;6.10;;;4.40;;
8100;SDS011;4093;53.470;9.832;2023-07-31T04:39:31;7.17;;;4.50;;
8100;SDS011;4093;53.470;9.832;2023-07-31T04:41:59;5.37;;;4.50;;
8100;SDS011;4093;53.470;9.832;2023-07-31T04:44:26;4.57;;;4.13;;
8100;SDS011;4093;53.470;9.832;2023-07-31T04:46:54;7.07;;;4.87;;
8100;SDS011;4093;53.470;9.832;2023-07-31T04:49:22;5.00;;;4.10;;
8100;SDS011;4093;53.470;9.832;2023-07-31T04:51:51;6.40;;;5.17;;
8100;SDS011;4093;53.470;9.832;2023-07-31T04:54:19;5.83;;;5.23;;
8100;SDS011;4093;53.470;9.832;2023-07-31T04:56:46;6.97;;;5.37;;
8100;SDS011;4093;53.470;9.832;2023-07-31T04:59:14;5.77;;;5.27;;
8100;SDS011;4093;53.470;9.832;2023-07-31T05:01:42;5.20;;;4.70;;
8100;SDS011;4093;53.470;9.832;2023-07-31T05:04:12;8.17;;;5.20;;
8100;SDS011;4093;53.470;9.832;2023-07-31T05:06:40;6.33;;;5.27;;
8100;SDS011;4093;53.470;9.832;2023-07-31T05:09:09;5.75;;;5.03;;
8100;SDS011;4093;53.470;9.832;2023-07-31T05:11:37;6.60;;;5.83;;
8100;SDS011;4093;53.470;9.832;2023-07-31T05:14:06;6.85;;;5.38;;
8100;SDS011;4093;53.470;9.832;2023-07-31T05:16:34;6.47;;;5.87;;
8100;SDS011;4093;53.470;9.832;2023-07-31T05:19:02;6.83;;;6.13;;
8100;SDS011;4093;53.470;9.832;2023-07-31T05:21:29;7.20;;;6.03;;
8100;SDS011;4093;53.470;9.832;2023-07-31T05:23:57;6.83;;;5.33;;
8100;SDS011;4093;53.470;9.832;2023-07-31T05:26:26;7.67;;;5.77;;
8100;SDS011;4093;53.470;9.832;2023-07-31T05:28:54;7.27;;;5.50;;
8100;SDS011;4093;53.470;9.832;2023-07-31T05:31:22;6.72;;;5.70;;
8100;SDS011;4093;53.470;9.832;2023-07-31T05:33:57;6.43;;;5.82;;
8100;SDS011;4093;53.470;9.832;2023-07-31T05:36:25;6.18;;;5.45;;
8100;SDS011;4093;53.470;9.832;2023-07-31T05:38:53;5.93;;;5.25;;
8100;SDS011;4093;53.470;9.832;2023-07-31T05:41:20;6.40;;;5.07;;
8100;SDS011;4093;53.470;9.832;2023-07-31T05:43:49;5.80;;;5.30;;
8100;SDS011;4093;53.470;9.832;2023-07-31T05:46:18;5.85;;;5.20;;
8100;SDS011;4093;53.470;9.832;2023-07-31T05:48:45;5.63;;;5.07;;
8100;SDS011;4093;53.470;9.832;2023-07-31T05:51:13;5.90;;;5.30;;
8100;SDS011;4093;53.470;9.832;2023-07-31T05:53:41;4.97;;;4.57;;
8100;SDS011;4093;53.470;9.832;2023-07-31T05:56:09;5.65;;;5.15;;
8100;SDS011;4093;53.470;9.832;2023-07-31T05:58:37;6.35;;;5.38;;
8100;SDS011;4093;53.470;9.832;2023-07-31T06:01:06;5.65;;;5.15;;
8100;SDS011;4093;53.470;9.832;2023-07-31T06:03:34;6.07;;;5.35;;
8100;SDS011;4093;53.470;9.832;2023-07-31T06:06:02;6.32;;;5.28;;
8100;SDS011;4093;53.470;9.832;2023-07-31T06:08:30;6.40;;;5.20;;
8100;SDS011;4093;53.470;9.832;2023-07-31T06:10:57;5.70;;;5.20;;
8100;SDS011;4093;53.470;9.832;2023-07-31T06:13:25;6.32;;;5.32;;
8100;SDS011;4093;53.470;9.832;2023-07-31T06:15:53;6.43;;;5.82;;
8100;SDS011;4093;53.470;9.832;2023-07-31T06:18:22;5.90;;;5.30;;
8100;SDS011;4093;53.470;9.832;2023-07-31T06:20:50;6.10;;;5.50;;
8100;SDS011;4093;53.470;9.832;2023-07-31T06:23:20;6.13;;;5.63;;
8100;SDS011;4093;53.470;9.832;2023-07-31T06:25:47;5.95;;;5.25;;
8100;SDS011;4093;53.470;9.832;2023-07-31T06:28:15;6.27;;;5.73;;
8100;SDS011;4093;53.470;9.832;2023-07-31T06:30:43;5.57;;;5.10;;
8100;SDS011;4093;53.470;9.832;2023-07-31T06:33:11;6.28;;;5.20;;
8100;SDS011;4093;53.470;9.832;2023-07-31T06:35:40;5.65;;;5.13;;
8100;SDS011;4093;53.470;9.832;2023-07-31T06:38:07;6.28;;;5.68;;
8100;SDS011;4093;53.470;9.832;2023-07-31T06:40:35;5.67;;;5.17;;
8100;SDS011;4093;53.470;9.832;2023-07-31T06:43:03;5.47;;;4.97;;
8100;SDS011;4093;53.470;9.832;2023-07-31T06:45:34;5.60;;;5.10;;
8100;SDS011;4093;53.470;9.832;2023-07-31T06:48:02;6.07;;;4.70;;
8100;SDS011;4093;53.470;9.832;2023-07-31T06:50:31;4.93;;;4.53;;
8100;SDS011;4093;53.470;9.832;2023-07-31T06:53:00;5.00;;;4.50;;
8100;SDS011;4093;53.470;9.832;2023-07-31T06:55:28;4.80;;;4.30;;
8100;SDS011;4093;53.470;9.832;2023-07-31T06:57:56;4.95;;;4.55;;
8100;SDS011;4093;53.470;9.832;2023-07-31T07:00:24;4.15;;;3.72;;
8100;SDS011;4093;53.470;9.832;2023-07-31T07:02:52;4.05;;;3.75;;
8100;SDS011;4093;53.470;9.832;2023-07-31T07:05:19;4.60;;;4.20;;
8100;SDS011;4093;53.470;9.832;2023-07-31T07:07:48;5.38;;;4.65;;
8100;SDS011;4093;53.470;9.832;2023-07-31T07:10:18;5.00;;;4.60;;
8100;SDS011;4093;53.470;9.832;2023-07-31T07:12:46;4.40;;;4.00;;
8100;SDS011;4093;53.470;9.832;2023-07-31T07:15:14;4.38;;;3.97;;
8100;SDS011;4093;53.470;9.832;2023-07-31T07:17:41;4.90;;;4.50;;
8100;SDS011;4093;53.470;9.832;2023-07-31T07:20:09;4.00;;;3.70;;
8100;SDS011;4093;53.470;9.832;2023-07-31T07:22:37;4.88;;;4.40;;
8100;SDS011;4093;53.470;9.832;2023-07-31T07:25:05;4.22;;;3.90;;
8100;SDS011;4093;53.470;9.832;2023-07-31T07:27:35;5.38;;;3.83;;
8100;SDS011;4093;53.470;9.832;2023-07-31T07:30:03;4.43;;;3.92;;
8100;SDS011;4093;53.470;9.832;2023-07-31T07:32:32;4.28;;;3.88;;
8100;SDS011;4093;53.470;9.832;2023-07-31T07:35:00;6.38;;;4.22;;
8100;SDS011;4093;53.470;9.832;2023-07-31T07:37:28;4.05;;;3.72;;
8100;SDS011;4093;53.470;9.832;2023-07-31T07:39:58;3.92;;;3.63;;
8100;SDS011;4093;53.470;9.832;2023-07-31T07:42:25;4.07;;;3.72;;
8100;SDS011;4093;53.470;9.832;2023-07-31T07:44:54;5.00;;;3.75;;
8100;SDS011;4093;53.470;9.832;2023-07-31T07:47:22;3.70;;;3.40;;
8100;SDS011;4093;53.470;9.832;2023-07-31T07:49:52;3.63;;;3.38;;
8100;SDS011;4093;53.470;9.832;2023-07-31T07:52:20;3.20;;;2.97;;
8100;SDS011;4093;53.470;9.832;2023-07-31T07:54:48;3.50;;;3.20;;
8100;SDS011;4093;53.470;9.832;2023-07-31T07:57:16;3.53;;;3.30;;
8100;SDS011;4093;53.470;9.832;2023-07-31T07:59:44;3.58;;;3.35;;
8100;SDS011;4093;53.470;9.832;2023-07-31T08:02:14;3.42;;;3.13;;
8100;SDS011;4093;53.470;9.832;2023-07-31T08:04:41;4.20;;;3.00;;
8100;SDS011;4093;53.470;9.832;2023-07-31T08:07:10;2.90;;;2.70;;
8100;SDS011;4093;53.470;9.832;2023-07-31T08:09:38;3.20;;;2.90;;
8100;SDS011;4093;53.470;9.832;2023-07-31T08:12:06;3.03;;;2.83;;
8100;SDS011;4093;53.470;9.832;2023-07-31T08:14:34;2.88;;;2.67;;
8100;SDS011;4093;53.470;9.832;2023-07-31T08:17:03;2.60;;;2.40;;
8100;SDS011;4093;53.470;9.832;2023-07-31T08:19:32;2.40;;;2.20;;
8100;SDS011;4093;53.470;9.832;2023-07-31T08:22:00;2.28;;;2.17;;
8100;SDS011;4093;53.470;9.832;2023-07-31T08:24:28;2.00;;;1.90;;
8100;SDS011;4093;53.470;9.832;2023-07-31T08:26:55;2.40;;;2.20;;
8100;SDS011;4093;53.470;9.832;2023-07-31T08:29:24;2.08;;;1.98;;
8100;SDS011;4093;53.470;9.832;2023-07-31T08:31:52;2.95;;;2.33;;
8100;SDS011;4093;53.470;9.832;2023-07-31T08:34:19;1.83;;;1.73;;
8100;SDS011;4093;53.470;9.832;2023-07-31T08:36:48;2.30;;;2.10;;
8100;SDS011;4093;53.470;9.832;2023-07-31T08:39:16;1.90;;;1.80;;
8100;SDS011;4093;53.470;9.832;2023-07-31T08:41:44;2.17;;;1.60;;
8100;SDS011;4093;53.470;9.832;2023-07-31T08:44:12;1.85;;;1.75;;
8100;SDS011;4093;53.470;9.832;2023-07-31T08:46:42;1.67;;;1.58;;
8100;SDS011;4093;53.470;9.832;2023-07-31T08:49:11;1.40;;;1.40;;
8100;SDS011;4093;53.470;9.832;2023-07-31T08:51:39;1.70;;;1.60;;
8100;SDS011;4093;53.470;9.832;2023-07-31T08:54:10;1.63;;;1.52;;
8100;SDS011;4093;53.470;9.832;2023-07-31T08:56:38;1.40;;;1.30;;
8100;SDS011;4093;53.470;9.832;2023-07-31T08:59:07;1.92;;;1.73;;
8100;SDS011;4093;53.470;9.832;2023-07-31T09:01:37;1.30;;;1.20;;
8100;SDS011;4093;53.470;9.832;2023-07-31T09:04:10;1.38;;;1.27;;
8100;SDS011;4093;53.470;9.832;2023-07-31T09:06:40;1.40;;;1.30;;
8100;SDS011;4093;53.470;9.832;2023-07-31T09:09:10;1.00;;;1.00;;
8100;SDS011;4093;53.470;9.832;2023-07-31T09:11:38;1.35;;;1.35;;
8100;SDS011;4093;53.470;9.832;2023-07-31T09:14:06;1.00;;;1.00;;
8100;SDS011;4093;53.470;9.832;2023-07-31T09:16:36;0.93;;;0.93;;
8100;SDS011;4093;53.470;9.832;2023-07-31T09:19:26;1.10;;;1.10;;
8100;SDS011;4093;53.470;9.832;2023-07-31T09:21:55;1.48;;;1.20;;
8100;SDS011;4093;53.470;9.832;2023-07-31T09:24:28;0.90;;;0.90;;
8100;SDS011;4093;53.470;9.832;2023-07-31T09:26:57;1.05;;;1.05;;
8100;SDS011;4093;53.470;9.832;2023-07-31T09:29:26;4.63;;;0.80;;
8100;SDS011;4093;53.470;9.832;2023-07-31T09:31:55;0.80;;;0.80;;
8100;SDS011;4093;53.470;9.832;2023-07-31T09:34:28;0.70;;;0.70;;
8100;SDS011;4093;53.470;9.832;2023-07-31T09:36:57;0.70;;;0.70;;
8100;SDS011;4093;53.470;9.832;2023-07-31T09:39:29;0.60;;;0.60;;
8100;SDS011;4093;53.470;9.832;2023-07-31T09:41:58;0.57;;;0.57;;
8100;SDS011;4093;53.470;9.832;2023-07-31T09:47:20;0.80;;;0.80;;
8100;SDS011;4093;53.470;9.832;2023-07-31T09:49:51;1.50;;;1.15;;
8100;SDS011;4093;53.470;9.832;2023-07-31T09:52:19;0.50;;;0.50;;
8100;SDS011;4093;53.470;9.832;2023-07-31T09:54:48;4.18;;;1.05;;
8100;SDS011;4093;53.470;9.832;2023-07-31T09:57:16;0.68;;;0.63;;
8100;SDS011;4093;53.470;9.832;2023-07-31T09:59:45;0.60;;;0.60;;
8100;SDS011;4093;53.470;9.832;2023-07-31T10:02:21;0.63;;;0.60;;
8100;SDS011;4093;53.470;9.832;2023-07-31T10:04:49;0.65;;;0.65;;
8100;SDS011;4093;53.470;9.832;2023-07-31T10:07:18;0.50;;;0.50;;
8100;SDS011;4093;53.470;9.832;2023-07-31T10:09:49;0.60;;;0.60;;
8100;SDS011;4093;53.470;9.832;2023-07-31T10:12:17;0.68;;;0.68;;
8100;SDS011;4093;53.470;9.832;2023-07-31T10:14:46;1.27;;;1.20;;
8100;SDS011;4093;53.470;9.832;2023-07-31T10:17:14;2.05;;;1.45;;
8100;SDS011;4093;53.470;9.832;2023-07-31T10:19:43;2.63;;;1.13;;
8100;SDS011;4093;53.470;9.832;2023-07-31T10:22:12;2.42;;;1.90;;
8100;SDS011;4093;53.470;9.832;2023-07-31T10:24:41;4.70;;;2.60;;
8100;SDS011;4093;53.470;9.832;2023-07-31T10:27:11;6.13;;;3.35;;
8100;SDS011;4093;53.470;9.832;2023-07-31T10:29:39;5.47;;;4.00;;
8100;SDS011;4093;53.470;9.832;2023-07-31T10:32:08;7.30;;;4.80;;
8100;SDS011;4093;53.470;9.832;2023-07-31T10:34:38;7.65;;;4.70;;
8100;SDS011;4093;53.470;9.832;2023-07-31T10:37:20;8.88;;;6.57;;
8100;SDS011;4093;53.470;9.832;2023-07-31T10:39:55;10.85;;;7.25;;
8100;SDS011;4093;53.470;9.832;2023-07-31T10:42:29;16.23;;;8.95;;
8100;SDS011;4093;53.470;9.832;2023-07-31T10:44:58;18.35;;;10.55;;
8100;SDS011;4093;53.470;9.832;2023-07-31T10:47:27;17.38;;;10.68;;
8100;SDS011;4093;53.470;9.832;2023-07-31T10:52:46;15.35;;;10.02;;
8100;SDS011;4093;53.470;9.832;2023-07-31T10:55:16;15.15;;;8.82;;
8100;SDS011;4093;53.470;9.832;2023-07-31T10:57:53;14.68;;;9.27;;
8100;SDS011;4093;53.470;9.832;2023-07-31T11:00:23;14.20;;;8.57;;
8100;SDS011;4093;53.470;9.832;2023-07-31T11:02:57;11.80;;;8.05;;
8100;SDS011;4093;53.470;9.832;2023-07-31T11:08:27;13.10;;;8.13;;
8100;SDS011;4093;53.470;9.832;2023-07-31T11:11:06;13.30;;;8.07;;
8100;SDS011;4093;53.470;9.832;2023-07-31T11:13:40;12.57;;;7.25;;
8100;SDS011;4093;53.470;9.832;2023-07-31T11:16:10;11.07;;;6.85;;
8100;SDS011;4093;53.470;9.832;2023-07-31T11:18:39;8.05;;;6.47;;
8100;SDS011;4093;53.470;9.832;2023-07-31T11:21:08;8.95;;;5.95;;
8100;SDS011;4093;53.470;9.832;2023-07-31T11:23:39;9.65;;;6.25;;
8100;SDS011;4093;53.470;9.832;2023-07-31T11:26:06;8.57;;;5.70;;
8100;SDS011;4093;53.470;9.832;2023-07-31T11:28:37;7.38;;;5.50;;
8100;SDS011;4093;53.470;9.832;2023-07-31T11:31:08;6.80;;;5.65;;
8100;SDS011;4093;53.470;9.832;2023-07-31T11:33:37;8.55;;;5.68;;
8100;SDS011;4093;53.470;9.832;2023-07-31T11:36:05;8.82;;;5.65;;
8100;SDS011;4093;53.470;9.832;2023-07-31T11:38:34;7.00;;;5.43;;
8100;SDS011;4093;53.470;9.832;2023-07-31T11:41:02;5.90;;;5.15;;
8100;SDS011;4093;53.470;9.832;2023-07-31T11:43:31;6.65;;;5.20;;
8100;SDS011;4093;53.470;9.832;2023-07-31T11:46:02;7.20;;;5.25;;
8100;SDS011;4093;53.470;9.832;2023-07-31T11:48:32;6.95;;;5.15;;
8100;SDS011;4093;53.470;9.832;2023-07-31T11:51:03;6.90;;;4.53;;
8100;SDS011;4093;53.470;9.832;2023-07-31T11:53:33;7.18;;;4.60;;
8100;SDS011;4093;53.470;9.832;2023-07-31T11:56:05;5.78;;;4.60;;
8100;SDS011;4093;53.470;9.832;2023-07-31T11:58:34;7.65;;;4.22;;
8100;SDS011;4093;53.470;9.832;2023-07-31T12:01:03;4.22;;;3.80;;
8100;SDS011;4093;53.470;9.832;2023-07-31T12:03:33;5.45;;;3.92;;
8100;SDS011;4093;53.470;9.832;2023-07-31T12:06:02;4.72;;;3.75;;
8100;SDS011;4093;53.470;9.832;2023-07-31T12:08:30;5.15;;;3.42;;
8100;SDS011;4093;53.470;9.832;2023-07-31T12:11:02;5.75;;;3.53;;
8100;SDS011;4093;53.470;9.832;2023-07-31T12:13:31;3.30;;;3.00;;
8100;SDS011;4093;53.470;9.832;2023-07-31T12:16:00;3.08;;;2.78;;
8100;SDS011;4093;53.470;9.832;2023-07-31T12:18:31;5.22;;;2.97;;
8100;SDS011;4093;53.470;9.832;2023-07-31T12:21:04;3.78;;;2.83;;
8100;SDS011;4093;53.470;9.832;2023-07-31T12:23:33;3.38;;;3.08;;
8100;SDS011;4093;53.470;9.832;2023-07-31T12:26:02;4.75;;;3.17;;
8100;SDS011;4093;53.470;9.832;2023-07-31T12:28:34;3.20;;;2.90;;
8100;SDS011;4093;53.470;9.832;2023-07-31T12:31:04;4.10;;;2.42;;
8100;SDS011;4093;53.470;9.832;2023-07-31T12:33:35;2.80;;;2.60;;
8100;SDS011;4093;53.470;9.832;2023-07-31T12:36:07;3.20;;;2.63;;
8100;SDS011;4093;53.470;9.832;2023-07-31T12:38:36;2.90;;;2.50;;
8100;SDS011;4093;53.470;9.832;2023-07-31T12:41:04;3.97;;;2.40;;
8100;SDS011;4093;53.470;9.832;2023-07-31T12:43:33;3.00;;;2.10;;
8100;SDS011;4093;53.470;9.832;2023-07-31T12:46:01;2.50;;;2.30;;
8100;SDS011;4093;53.470;9.832;2023-07-31T12:48:29;2.50;;;2.30;;
8100;SDS011;4093;53.470;9.832;2023-07-31T12:50:58;2.78;;;2.30;;
8100;SDS011;4093;53.470;9.832;2023-07-31T12:53:26;2.38;;;2.03;;
8100;SDS011;4093;53.470;9.832;2023-07-31T12:55:54;1.90;;;1.70;;
8100;SDS011;4093;53.470;9.832;2023-07-31T12:58:22;2.13;;;2.00;;
8100;SDS011;4093;53.470;9.832;2023-07-31T13:00:49;3.33;;;2.10;;
8100;SDS011;4093;53.470;9.832;2023-07-31T13:03:17;1.90;;;1.75;;
8100;SDS011;4093;53.470;9.832;2023-07-31T13:05:45;2.10;;;1.90;;
8100;SDS011;4093;53.470;9.832;2023-07-31T13:08:14;1.75;;;1.65;;
8100;SDS011;4093;53.470;9.832;2023-07-31T13:10:43;2.42;;;2.17;;
8100;SDS011;4093;53.470;9.832;2023-07-31T13:13:11;2.70;;;1.90;;
8100;SDS011;4093;53.470;9.832;2023-07-31T13:15:39;3.05;;;1.90;;
8100;SDS011;4093;53.470;9.832;2023-07-31T13:18:07;3.33;;;2.17;;
8100;SDS011;4093;53.470;9.832;2023-07-31T13:20:34;2.08;;;1.90;;
8100;SDS011;4093;53.470;9.832;2023-07-31T13:23:02;1.70;;;1.60;;
8100;SDS011;4093;53.470;9.832;2023-07-31T13:25:31;1.67;;;1.58;;
8100;SDS011;4093;53.470;9.832;2023-07-31T13:27:59;1.65;;;1.55;;
8100;SDS011;4093;53.470;9.832;2023-07-31T13:30:29;2.05;;;1.50;;
8100;SDS011;4093;53.470;9.832;2023-07-31T13:32:57;1.70;;;1.60;;
8100;SDS011;4093;53.470;9.832;2023-07-31T13:35:24;1.48;;;1.40;;
8100;SDS011;4093;53.470;9.832;2023-07-31T13:37:52;1.02;;;1.02;;
8100;SDS011;4093;53.470;9.832;2023-07-31T13:40:20;1.67;;;1.58;;
8100;SDS011;4093;53.470;9.832;2023-07-31T13:42:49;1.30;;;1.30;;
8100;SDS011;4093;53.470;9.832;2023-07-31T13:45:17;1.52;;;1.42;;
8100;SDS011;4093;53.470;9.832;2023-07-31T13:47:45;1.15;;;1.08;;
8100;SDS011;4093;53.470;9.832;2023-07-31T13:50:12;1.05;;;1.05;;
8100;SDS011;4093;53.470;9.832;2023-07-31T13:52:40;3.22;;;1.30;;
8100;SDS011;4093;53.470;9.832;2023-07-31T13:55:08;1.08;;;1.08;;
8100;SDS011;4093;53.470;9.832;2023-07-31T13:57:36;1.40;;;1.30;;
8100;SDS011;4093;53.470;9.832;2023-07-31T14:00:06;1.00;;;1.00;;
8100;SDS011;4093;53.470;9.832;2023-07-31T14:02:35;0.98;;;0.93;;
8100;SDS011;4093;53.470;9.832;2023-07-31T14:05:02;1.30;;;1.30;;
8100;SDS011;4093;53.470;9.832;2023-07-31T14:07:31;1.42;;;1.08;;
8100;SDS011;4093;53.470;9.832;2023-07-31T14:09:59;1.02;;;1.02;;
8100;SDS011;4093;53.470;9.832;2023-07-31T14:12:27;2.28;;;1.20;;
8100;SDS011;4093;53.470;9.832;2023-07-31T14:15:10;1.35;;;1.20;;
8100;SDS011;4093;53.470;9.832;2023-07-31T14:17:38;1.70;;;1.60;;
8100;SDS011;4093;53.470;9.832;2023-07-31T14:20:07;1.70;;;1.60;;
8100;SDS011;4093;53.470;9.832;2023-07-31T14:22:36;1.40;;;1.40;;
8100;SDS011;4093;53.470;9.832;2023-07-31T14:25:04;1.50;;;1.40;;
8100;SDS011;4093;53.470;9.832;2023-07-31T14:27:32;1.52;;;1.42;;
8100;SDS011;4093;53.470;9.832;2023-07-31T14:30:00;2.00;;;1.90;;
8100;SDS011;4093;53.470;9.832;2023-07-31T14:32:29;1.92;;;1.83;;
8100;SDS011;4093;53.470;9.832;2023-07-31T14:34:58;2.00;;;1.90;;
8100;SDS011;4093;53.470;9.832;2023-07-31T14:37:25;2.40;;;2.20;;
8100;SDS011;4093;53.470;9.832;2023-07-31T14:39:54;2.75;;;2.20;;
8100;SDS011;4093;53.470;9.832;2023-07-31T14:42:22;2.15;;;2.05;;
8100;SDS011;4093;53.470;9.832;2023-07-31T14:44:50;2.53;;;2.28;;
8100;SDS011;4093;53.470;9.832;2023-07-31T14:47:17;2.92;;;2.20;;
8100;SDS011;4093;53.470;9.832;2023-07-31T14:49:47;2.28;;;2.17;;
8100;SDS011;4093;53.470;9.832;2023-07-31T14:52:14;2.75;;;2.25;;
8100;SDS011;4093;53.470;9.832;2023-07-31T14:54:42;3.67;;;2.70;;
8100;SDS011;4093;53.470;9.832;2023-07-31T14:57:10;3.90;;;2.53;;
8100;SDS011;4093;53.470;9.832;2023-07-31T14:59:37;2.83;;;2.60;;
8100;SDS011;4093;53.470;9.832;2023-07-31T15:02:05;2.70;;;2.50;;
8100;SDS011;4093;53.470;9.832;2023-07-31T15:04:34;2.60;;;2.40;;
8100;SDS011;4093;53.470;9.832;2023-07-31T15:07:04;3.25;;;2.95;;
8100;SDS011;4093;53.470;9.832;2023-07-31T15:09:32;3.42;;;2.53;;
8100;SDS011;4093;53.470;9.832;2023-07-31T15:11:59;3.33;;;2.85;;
8100;SDS011;4093;53.470;9.832;2023-07-31T15:14:27;3.42;;;3.17;;
8100;SDS011;4093;53.470;9.832;2023-07-31T15:16:57;3.30;;;3.10;;
8100;SDS011;4093;53.470;9.832;2023-07-31T15:19:25;2.92;;;2.72;;
8100;SDS011;4093;53.470;9.832;2023-07-31T15:21:52;3.25;;;2.70;;
8100;SDS011;4093;53.470;9.832;2023-07-31T15:24:21;3.72;;;2.60;;
8100;SDS011;4093;53.470;9.832;2023-07-31T15:26:49;3.15;;;2.85;;
8100;SDS011;4093;53.470;9.832;2023-07-31T15:29:17;2.92;;;2.72;;
8100;SDS011;4093;53.470;9.832;2023-07-31T15:31:46;3.58;;;3.28;;
8100;SDS011;4093;53.470;9.832;2023-07-31T15:34:15;3.97;;;3.67;;